Mexican Cut, RMBL, Colorado Weather observations

Data are for 10 minute period ending at time listed.
 Day   Time   Solar   Ave.   Ave.  Ave.  Vector  Max.   Baro.   Total    
  of    of     Rad.   Air    Rel.  Wind   Wind   Wind  Press.  Precip.   
Year   Day            Temp.  Hum.  Speed  Dir.   Gust                    
2016   (MST)  Kw/m2    F      %     mph   deg.    mph    mb.     in.     
-------------------------------------------------------------------------
 179   13:30   1.05   63.6    15    4.1   334    10.0   686.3    0.00 
 179   13:40   1.04   63.5    14    6.2   333    14.8   686.3    0.00 
 179   13:50   1.02   63.1    15    3.6   248    12.0   686.2    0.00 
 179   14:00   1.01   63.8    15    4.6   323    13.2   686.2    0.00 
 179   14:10   0.99   63.3    15    5.4   332    12.1   686.1    0.00 
 179   14:20   0.97   64.6    15    4.8   324    11.2   686.1    0.00 
 179   14:30   0.94   64.0    15    4.5   345    10.9   686.0    0.00 
 179   14:40   0.93   63.8    15    6.2   336    14.8   685.9    0.00 
 179   14:50   0.91   63.9    15    5.0   328    10.9   685.9    0.00 
 179   15:00   0.88   64.3    15    5.6   326    15.3   685.9    0.00 
 179   15:10   0.85   63.7    15    4.5   307    10.3   685.8    0.00 
 179   15:20   0.82   64.1    15    4.8   285    13.4   685.8    0.00 
 179   15:30   0.80   64.5    15    4.5   317    12.5   685.8    0.00 
 179   15:40   0.76   64.6    15    5.0   283    11.9   685.7    0.00 
 179   15:50   0.73   64.2    15    3.5   310    10.2   685.8    0.00 
 179   16:00   0.70   64.1    16    3.2   299     8.5   685.8    0.00 
 179   16:10   0.67   64.5    16    4.0   281    11.3   685.7    0.00 
 179   16:20   0.63   64.8    16    2.3   264     7.7   685.8    0.00 
 179   16:30   0.60   65.8    16    2.1   280     8.0   685.7    0.00 
 179   16:40   0.56   65.1    16    3.0   223     9.3   685.8    0.00 
 179   16:50   0.52   65.3    16    3.1   275     9.6   685.7    0.00 
 179   17:00   0.49   65.1    16    2.2    17     7.5   685.7    0.00 
 179   17:10   0.45   64.5    17    5.7   317    14.8   685.5    0.00 
 179   17:20   0.42   64.1    18    5.5   338    12.1   685.7    0.00 
 179   17:30   0.38   64.5    18    3.1   304     7.6   685.6    0.00 
 179   17:40   0.34   64.6    17    3.1   305     8.3   685.6    0.00 
 179   17:50   0.30   64.4    18    1.8    15     5.8   685.7    0.00 
 179   18:00   0.26   65.2    17    2.0   228     5.8   685.6    0.00 
 179   18:10   0.23   63.6    20    2.0   248     8.5   685.6    0.00 
 179   18:20   0.07   62.7    19    2.9   318    12.9   685.8    0.00 
 179   18:30   0.03   63.0    20    2.5   323     7.7   685.9    0.00 
 179   18:40   0.03   61.1    21    3.5   327     8.1   685.9    0.00 
 179   18:50   0.02   60.1    22    2.6   323     8.0   685.8    0.00 
 179   19:00   0.02   59.5    23    1.6   320     5.0   685.7    0.00 
 179   19:10   0.01   59.1    22    3.4   322     9.8   685.6    0.00 
 179   19:20   0.01   59.1    21    2.3   342     6.3   685.8    0.00 
 179   19:30   0.01   58.9    21    3.4   333    11.8   685.9    0.00 
 179   19:40   0.00   58.8    21    3.7   313    10.1   685.9    0.00 
 179   19:50   0.00   58.5    21    2.5   341     8.0   685.9    0.00 
 179   20:00   0.00   57.9    22    2.4   318     7.4   685.9    0.00 
 179   20:10   0.00   57.9    21    3.9   321     9.6   685.8    0.00 
 179   20:20   0.00   57.9    21    3.8   310     8.9   686.0    0.00 
 179   20:30   0.00   57.9    20    4.9   299    11.5   686.1    0.00 
 179   20:40   0.00   57.5    21    2.5   301     9.2   686.1    0.00 
 179   20:50   0.00   57.3    21    3.1   297    11.0   686.3    0.00 
 179   21:00   0.00   56.7    21    1.6   271     4.5   686.4    0.00 
 179   21:10   0.00   55.5    24    1.3   266     4.4   686.4    0.00 
 179   21:20   0.00   55.1    24    1.3   260     3.4   686.4    0.00 
 179   21:30   0.00   54.1    24    1.1   240     3.4   686.5    0.00 
 179   21:40   0.00   53.7    25    1.0   246     5.0   686.3    0.00 
 179   21:50   0.00   54.5    22    1.9   239     7.7   686.3    0.00 
 179   22:00   0.00   55.5    21    2.1   236     4.1   686.3    0.00 
 179   22:10   0.00   54.7    25    1.3   234     4.2   686.3    0.00 
 179   22:20   0.00   53.0    25    1.2   234     2.4   686.3    0.00 
 179   22:30   0.00   53.9    24    1.2   210     3.9   686.3    0.00 
 179   22:40   0.00   53.3    27    1.8   182     3.8   686.3    0.00 
 179   22:50   0.00   52.4    27    2.0   201     4.6   686.3    0.00 
 179   23:00   0.00   51.9    28    2.2   210     5.3   686.3    0.00 
 179   23:10   0.00   51.6    28    2.3   216     4.2   686.2    0.00 
 179   23:20   0.00   51.7    28    2.7   208     4.2   686.2    0.00 
 179   23:30   0.00   50.9    29    2.3   211     4.2   686.1    0.00 
 179   23:40   0.00   51.2    29    3.7   199     5.6   686.0    0.00 
 179   23:50   0.00   51.1    29    3.2   194     5.1   685.9    0.00 
 180    0:00   0.00   51.1    29    3.2   201     4.7   686.0    0.00 
 180    0:10   0.00   51.1    29    3.2   204     5.0   686.0    0.00 
 180    0:20   0.00   50.6    29    2.8   182     4.7   685.8    0.00 
 180    0:30   0.00   50.3    30    2.5   205     4.2   685.8    0.00 
 180    0:40   0.00   50.4    30    3.8   208     5.3   685.8    0.00 
 180    0:50   0.00   50.8    30    3.1   210     6.1   685.8    0.00 
 180    1:00   0.00   49.8    31    2.5   209     3.1   685.9    0.00 
 180    1:10   0.00   49.5    31    3.7   207     6.9   685.9    0.00 
 180    1:20   0.00   50.1    30    3.7   193     6.2   685.8    0.00 
 180    1:30   0.00   51.1    28    4.1   169     7.1   685.8    0.00 
 180    1:40   0.00   51.8    28    4.3   169     7.7   685.9    0.00 
 180    1:50   0.00   52.0    29    3.7   184     6.9   686.0    0.00 
 180    2:00   0.00   51.9    35    3.6   183     7.2   686.0    0.00 
 180    2:10   0.00   51.3    39    3.1   182     4.9   686.0    0.00 
 180    2:20   0.00   51.2    41    3.3   182     6.1   686.0    0.00 
 180    2:30   0.00   51.0    44    2.6   170     6.6   685.8    0.00 
 180    2:40   0.00   50.2    47    2.6   175     4.5   685.8    0.00 
 180    2:50   0.00   50.2    46    3.8   180     8.0   685.8    0.00 
 180    3:00   0.00   50.3    46    3.8   183     6.1   685.8    0.00 
 180    3:10   0.00   50.8    46    4.4   181     7.4   685.8    0.00 
 180    3:20   0.00   50.5    46    4.6   186     8.0   685.7    0.00 
 180    3:30   0.00   49.8    48    4.2   180     8.0   685.7    0.00 
 180    3:40   0.00   50.0    48    4.1   171     6.7   685.8    0.00 
 180    3:50   0.00   50.6    46    4.2   168     8.0   685.8    0.00 
 180    4:00   0.00   50.5    47    4.3   172     6.9   685.9    0.00 
 180    4:10   0.00   51.0    47    5.4   164     9.3   685.9    0.00 
 180    4:20   0.00   50.4    49    3.6   161     6.9   685.8    0.00 
 180    4:30   0.00   49.1    50    3.0   172     6.1   685.8    0.00 
 180    4:40   0.00   49.4    48    3.1   169     5.7   685.8    0.00 
 180    4:50   0.00   49.3    49    2.6   175     5.6   685.9    0.00 
 180    5:00   0.01   49.2    49    2.1   178     6.1   685.9    0.00 
 180    5:10   0.01   48.7    51    1.5   131     2.9   686.1    0.00 
 180    5:20   0.02   48.6    51    2.6   143     5.6   686.0    0.00 
 180    5:30   0.07   50.4    48    1.9   112     4.5   686.0    0.00 
 180    5:40   0.11   52.2    45    2.4   113     6.4   686.1    0.00 
 180    5:50   0.16   53.2    44    2.9   112     5.8   686.1    0.00 
 180    6:00   0.20   54.5    43    2.6   117     6.3   686.2    0.00 
 180    6:10   0.23   56.0    41    3.4   114     7.5   686.3    0.00 
 180    6:20   0.22   56.6    40    4.0   119     9.6   686.3    0.00 
 180    6:30   0.28   56.2    41    4.2   121     8.7   686.3    0.00 
 180    6:40   0.30   57.2    39    4.9   141    10.1   686.4    0.00 
 180    6:50   0.34   57.9    39    4.0   141    10.4   686.5    0.00 
 180    7:00   0.39   57.4    39    6.3   134    10.9   686.5    0.00 
 180    7:10   0.42   57.1    40    5.6   128    10.7   686.6    0.00 
 180    7:20   0.46   58.1    39    5.2   134    11.2   686.6    0.00 
 180    7:30   0.49   58.3    38    5.3   134     9.5   686.6    0.00 
 180    7:40   0.53   58.4    39    5.0   141     9.8   686.7    0.00 
 180    7:50   0.57   59.5    37    3.9   141    10.3   686.6    0.00 
 180    8:00   0.60   59.8    37    3.4   147     8.7   686.6    0.00 
 180    8:10   0.64   60.9    37    2.5   134     6.2   686.5    0.00 
 180    8:20   0.67   61.1    36    2.7   158     7.8   686.7    0.00 
 180    8:30   0.70   60.9    36    4.5   154     9.9   686.7    0.00 
 180    8:40   0.73   61.3    36    3.1   124     6.7   686.6    0.00 
 180    8:50   0.76   61.2    36    4.2   117    10.2   686.5    0.00 
 180    9:00   0.79   61.5    36    3.0   103     9.3   686.5    0.00 
 180    9:10   0.82   62.2    32    2.4   169     5.9   686.4    0.00 
 180    9:20   0.80   62.2    31    3.5   142     8.0   686.4    0.00 
 180    9:30   0.88   62.6    31    3.8   143     7.7   686.4    0.00 
 180    9:40   0.88   63.7    30    2.4    47     7.4   686.3    0.00 
 180    9:50   0.91   63.0    28    2.6    20     8.2   686.4    0.00 
 180   10:00   0.94   62.4    26    3.4   328    10.5   686.3    0.00 
 180   10:10   0.97   62.9    24    3.2   331     9.3   686.2    0.00 
 180   10:20   1.01   62.9    23    4.2   293     9.6   686.2    0.00 
 180   10:30   1.04   63.1    23    4.1   334    12.3   686.2    0.00 
 180   10:40   1.06   63.4    22    4.7   342    12.3   686.2    0.00 
 180   10:50   1.08   63.8    22    4.3   301    13.8   686.1    0.00 
 180   11:00   1.01   64.5    22    2.4   239     9.9   686.1    0.00 
 180   11:10   1.12   63.7    23    4.0    37    12.3   686.1    0.00 
 180   11:20   1.10   63.8    24    4.0   356     9.7   686.1    0.00 
 180   11:30   1.01   65.4    24    2.9    12     8.9   686.0    0.00 
 180   11:40   0.22   63.1    26    4.6   333     8.8   686.0    0.00 
 180   11:50   0.97   63.2    26    1.7   264    11.3   686.0    0.00 
 180   12:00   0.80   63.8    24    4.0   330     9.8   685.9    0.00 
 180   12:10   0.87   62.9    26    3.4   332     8.0   685.9    0.00 
 180   12:20   0.60   63.5    25    4.3   346    14.0   685.8    0.00 
 180   12:30   0.26   62.7    26    2.3    26     7.1   685.8    0.00 
 180   12:40   0.42   62.3    26    3.4   327    10.0   685.8    0.00 
 180   12:50   0.42   62.4    26    3.6   292    12.6   685.8    0.00 
 180   13:00   0.73   62.1    26    5.6   319    13.3   685.8    0.00 
 180   13:10   1.03   63.5    23    3.4   270     8.6   685.6    0.00 
 180   13:20   0.58   64.3    20    2.1   310     8.1   685.5    0.00 

Return to Mexican Cut, RMBL, Colorado graphs page.


Western Regional Climate Center,wrcc@dri.edu